sensor_id;sensor_type;location;lat;lon;timestamp;noise_LAeq;noise_LA_min;noise_LA_max;noise_LA01;noise_LA95
48967;Laerm;46511;53.148;8.204;2024-03-02T00:00:26;46.17;41.89;56.78;;
48967;Laerm;46511;53.148;8.204;2024-03-02T00:02:58;44.52;40.33;63.98;;
48967;Laerm;46511;53.148;8.204;2024-03-02T00:05:29;51.46;41.68;66.79;;
48967;Laerm;46511;53.148;8.204;2024-03-02T00:08:01;44.60;41.30;57.67;;
48967;Laerm;46511;53.148;8.204;2024-03-02T00:10:37;47.81;40.98;67.95;;
48967;Laerm;46511;53.148;8.204;2024-03-02T00:13:12;47.85;41.96;62.25;;
48967;Laerm;46511;53.148;8.204;2024-03-02T00:15:48;44.34;41.96;51.63;;
48967;Laerm;46511;53.148;8.204;2024-03-02T00:18:34;44.06;40.23;54.48;;
48967;Laerm;46511;53.148;8.204;2024-03-02T00:21:01;52.62;41.53;66.28;;
48967;Laerm;46511;53.148;8.204;2024-03-02T00:23:34;49.47;42.03;63.39;;
48967;Laerm;46511;53.148;8.204;2024-03-02T00:26:06;51.82;40.53;67.59;;
48967;Laerm;46511;53.148;8.204;2024-03-02T00:28:39;44.98;41.30;63.47;;
48967;Laerm;46511;53.148;8.204;2024-03-02T00:31:13;43.66;40.53;53.15;;
48967;Laerm;46511;53.148;8.204;2024-03-02T00:33:47;51.42;41.30;62.65;;
48967;Laerm;46511;53.148;8.204;2024-03-02T00:36:24;43.46;40.23;48.64;;
48967;Laerm;46511;53.148;8.204;2024-03-02T00:38:55;50.06;39.81;64.32;;
48967;Laerm;46511;53.148;8.204;2024-03-02T00:41:30;44.17;40.62;51.83;;
48967;Laerm;46511;53.148;8.204;2024-03-02T00:44:03;43.55;41.68;46.15;;
48967;Laerm;46511;53.148;8.204;2024-03-02T00:46:40;44.13;41.06;58.07;;
48967;Laerm;46511;53.148;8.204;2024-03-02T00:49:18;43.55;41.38;51.92;;
48967;Laerm;46511;53.148;8.204;2024-03-02T00:51:53;49.64;41.30;65.08;;
48967;Laerm;46511;53.148;8.204;2024-03-02T00:54:26;57.37;42.03;69.32;;
48967;Laerm;46511;53.148;8.204;2024-03-02T00:56:57;46.94;42.53;57.26;;
48967;Laerm;46511;53.148;8.204;2024-03-02T00:59:30;52.66;42.41;73.36;;
48967;Laerm;46511;53.148;8.204;2024-03-02T01:02:02;47.71;39.92;64.52;;
48967;Laerm;46511;53.148;8.204;2024-03-02T01:04:34;50.28;40.23;65.40;;
48967;Laerm;46511;53.148;8.204;2024-03-02T01:07:05;46.11;41.46;62.76;;
48967;Laerm;46511;53.148;8.204;2024-03-02T01:09:37;45.56;41.06;65.95;;
48967;Laerm;46511;53.148;8.204;2024-03-02T01:12:08;47.39;40.71;67.66;;
48967;Laerm;46511;53.148;8.204;2024-03-02T01:14:40;46.37;40.62;67.47;;
48967;Laerm;46511;53.148;8.204;2024-03-02T01:17:11;44.36;40.43;58.50;;
48967;Laerm;46511;53.148;8.204;2024-03-02T01:19:42;43.50;40.23;51.12;;
48967;Laerm;46511;53.148;8.204;2024-03-02T01:22:14;43.72;40.62;53.11;;
48967;Laerm;46511;53.148;8.204;2024-03-02T01:24:45;52.38;42.09;65.39;;
48967;Laerm;46511;53.148;8.204;2024-03-02T01:27:12;52.41;39.58;76.83;;
48967;Laerm;46511;53.148;8.204;2024-03-02T01:29:43;54.63;40.43;75.87;;
48967;Laerm;46511;53.148;8.204;2024-03-02T01:32:14;50.68;40.03;65.85;;
48967;Laerm;46511;53.148;8.204;2024-03-02T01:34:47;51.58;40.03;67.28;;
48967;Laerm;46511;53.148;8.204;2024-03-02T01:37:13;54.47;40.96;68.12;;
48967;Laerm;46511;53.148;8.204;2024-03-02T01:39:44;43.56;39.92;56.10;;
48967;Laerm;46511;53.148;8.204;2024-03-02T01:42:16;47.76;40.33;60.84;;
48967;Laerm;46511;53.148;8.204;2024-03-02T01:44:47;45.12;40.62;61.37;;
48967;Laerm;46511;53.148;8.204;2024-03-02T01:47:19;44.09;39.58;62.40;;
48967;Laerm;46511;53.148;8.204;2024-03-02T01:49:50;50.81;41.75;66.45;;
48967;Laerm;46511;53.148;8.204;2024-03-02T01:52:21;45.18;41.38;62.16;;
48967;Laerm;46511;53.148;8.204;2024-03-02T01:54:53;43.81;40.23;58.29;;
48967;Laerm;46511;53.148;8.204;2024-03-02T01:57:24;43.48;39.21;48.31;;
48967;Laerm;46511;53.148;8.204;2024-03-02T01:59:56;43.61;40.33;58.75;;
48967;Laerm;46511;53.148;8.204;2024-03-02T02:02:22;51.44;40.43;68.29;;
48967;Laerm;46511;53.148;8.204;2024-03-02T02:04:57;43.51;39.08;56.08;;
48967;Laerm;46511;53.148;8.204;2024-03-02T02:07:23;52.50;38.81;68.77;;
48967;Laerm;46511;53.148;8.204;2024-03-02T02:09:49;49.88;40.43;70.87;;
48967;Laerm;46511;53.148;8.204;2024-03-02T02:12:21;51.87;41.82;66.83;;
48967;Laerm;46511;53.148;8.204;2024-03-02T02:14:52;51.89;41.30;71.78;;
48967;Laerm;46511;53.148;8.204;2024-03-02T02:17:24;52.01;40.33;69.75;;
48967;Laerm;46511;53.148;8.204;2024-03-02T02:19:55;43.40;40.23;50.57;;
48967;Laerm;46511;53.148;8.204;2024-03-02T02:22:26;43.98;40.80;55.18;;
48967;Laerm;46511;53.148;8.204;2024-03-02T02:24:58;43.53;40.33;52.68;;
48967;Laerm;46511;53.148;8.204;2024-03-02T02:27:29;47.93;41.96;63.24;;
48967;Laerm;46511;53.148;8.204;2024-03-02T02:30:01;51.39;41.30;64.78;;
48967;Laerm;46511;53.148;8.204;2024-03-02T02:32:34;43.34;40.54;51.67;;
48967;Laerm;46511;53.148;8.204;2024-03-02T02:35:06;50.80;41.46;65.41;;
48967;Laerm;46511;53.148;8.204;2024-03-02T02:37:37;46.52;40.80;61.56;;
48967;Laerm;46511;53.148;8.204;2024-03-02T02:40:10;57.18;40.53;67.48;;
48967;Laerm;46511;53.148;8.204;2024-03-02T02:42:41;48.03;41.61;61.15;;
48967;Laerm;46511;53.148;8.204;2024-03-02T02:45:13;51.15;40.33;67.93;;
48967;Laerm;46511;53.148;8.204;2024-03-02T02:47:45;43.70;40.53;50.45;;
48967;Laerm;46511;53.148;8.204;2024-03-02T02:50:17;44.09;40.63;53.42;;
48967;Laerm;46511;53.148;8.204;2024-03-02T02:52:50;51.82;40.62;64.73;;
48967;Laerm;46511;53.148;8.204;2024-03-02T02:55:22;43.53;40.71;54.10;;
48967;Laerm;46511;53.148;8.204;2024-03-02T02:57:53;43.37;38.37;51.06;;
48967;Laerm;46511;53.148;8.204;2024-03-02T03:00:24;43.26;40.13;49.74;;
48967;Laerm;46511;53.148;8.204;2024-03-02T03:02:55;48.92;40.03;63.50;;
48967;Laerm;46511;53.148;8.204;2024-03-02T03:05:27;43.27;39.46;46.89;;
48967;Laerm;46511;53.148;8.204;2024-03-02T03:07:58;43.49;39.34;51.08;;
48967;Laerm;46511;53.148;8.204;2024-03-02T03:10:31;50.33;39.70;63.65;;
48967;Laerm;46511;53.148;8.204;2024-03-02T03:13:02;50.23;40.43;67.15;;
48967;Laerm;46511;53.148;8.204;2024-03-02T03:15:37;51.05;40.80;65.92;;
48967;Laerm;46511;53.148;8.204;2024-03-02T03:18:08;44.21;40.89;55.09;;
48967;Laerm;46511;53.148;8.204;2024-03-02T03:20:41;43.63;40.23;51.70;;
48967;Laerm;46511;53.148;8.204;2024-03-02T03:23:12;44.01;40.03;59.22;;
48967;Laerm;46511;53.148;8.204;2024-03-02T03:25:48;50.84;41.06;64.76;;
48967;Laerm;46511;53.148;8.204;2024-03-02T03:28:19;50.97;40.62;63.96;;
48967;Laerm;46511;53.148;8.204;2024-03-02T03:30:50;50.85;40.43;66.49;;
48967;Laerm;46511;53.148;8.204;2024-03-02T03:33:22;43.77;40.36;55.11;;
48967;Laerm;46511;53.148;8.204;2024-03-02T03:35:48;43.72;39.46;52.58;;
48967;Laerm;46511;53.148;8.204;2024-03-02T03:38:19;43.27;40.03;50.80;;
48967;Laerm;46511;53.148;8.204;2024-03-02T03:40:51;43.47;40.36;49.02;;
48967;Laerm;46511;53.148;8.204;2024-03-02T03:43:22;43.65;39.92;47.14;;
48967;Laerm;46511;53.148;8.204;2024-03-02T03:45:53;43.47;40.89;49.36;;
48967;Laerm;46511;53.148;8.204;2024-03-02T03:48:25;44.53;41.53;64.59;;
48967;Laerm;46511;53.148;8.204;2024-03-02T03:51:01;47.40;40.23;60.23;;
48967;Laerm;46511;53.148;8.204;2024-03-02T03:53:32;43.68;41.14;48.64;;
48967;Laerm;46511;53.148;8.204;2024-03-02T03:56:04;44.17;40.62;47.98;;
48967;Laerm;46511;53.148;8.204;2024-03-02T03:58:36;49.82;41.22;65.05;;
48967;Laerm;46511;53.148;8.204;2024-03-02T04:01:07;43.99;41.22;55.44;;
48967;Laerm;46511;53.148;8.204;2024-03-02T04:03:39;43.85;40.33;49.35;;
48967;Laerm;46511;53.148;8.204;2024-03-02T04:06:10;47.92;41.89;61.02;;
48967;Laerm;46511;53.148;8.204;2024-03-02T04:08:42;49.07;40.62;61.86;;
48967;Laerm;46511;53.148;8.204;2024-03-02T04:11:13;52.36;41.68;64.75;;
48967;Laerm;46511;53.148;8.204;2024-03-02T04:13:44;52.57;40.80;67.99;;
48967;Laerm;46511;53.148;8.204;2024-03-02T04:16:15;49.17;41.96;63.13;;
48967;Laerm;46511;53.148;8.204;2024-03-02T04:18:47;50.87;41.53;62.48;;
48967;Laerm;46511;53.148;8.204;2024-03-02T04:21:18;46.10;41.22;61.64;;
48967;Laerm;46511;53.148;8.204;2024-03-02T04:23:49;51.31;41.96;65.37;;
48967;Laerm;46511;53.148;8.204;2024-03-02T04:26:21;54.66;41.75;67.47;;
48967;Laerm;46511;53.148;8.204;2024-03-02T04:28:53;49.61;41.53;66.56;;
48967;Laerm;46511;53.148;8.204;2024-03-02T04:31:25;45.54;40.71;59.74;;
48967;Laerm;46511;53.148;8.204;2024-03-02T04:33:56;53.92;41.89;67.81;;
48967;Laerm;46511;53.148;8.204;2024-03-02T04:36:27;53.31;41.22;68.48;;
48967;Laerm;46511;53.148;8.204;2024-03-02T04:38:58;54.92;41.89;66.88;;
48967;Laerm;46511;53.148;8.204;2024-03-02T04:41:30;50.04;40.43;65.22;;
48967;Laerm;46511;53.148;8.204;2024-03-02T04:44:01;46.57;42.29;60.76;;
48967;Laerm;46511;53.148;8.204;2024-03-02T04:46:28;45.86;41.68;60.86;;
48967;Laerm;46511;53.148;8.204;2024-03-02T04:48:59;49.12;41.82;62.36;;
48967;Laerm;46511;53.148;8.204;2024-03-02T04:51:26;46.01;42.47;58.68;;
48967;Laerm;46511;53.148;8.204;2024-03-02T04:53:57;54.08;41.38;68.01;;
48967;Laerm;46511;53.148;8.204;2024-03-02T04:56:28;44.43;39.70;56.39;;
48967;Laerm;46511;53.148;8.204;2024-03-02T04:59:03;44.49;40.33;54.62;;
48967;Laerm;46511;53.148;8.204;2024-03-02T05:01:34;49.05;40.98;62.30;;
48967;Laerm;46511;53.148;8.204;2024-03-02T05:04:05;50.96;41.75;65.76;;
48967;Laerm;46511;53.148;8.204;2024-03-02T05:06:38;49.72;41.96;63.29;;
48967;Laerm;46511;53.148;8.204;2024-03-02T05:09:11;51.99;42.09;68.11;;
48967;Laerm;46511;53.148;8.204;2024-03-02T05:11:42;50.59;42.76;62.50;;
48967;Laerm;46511;53.148;8.204;2024-03-02T05:14:16;51.87;42.16;67.38;;
48967;Laerm;46511;53.148;8.204;2024-03-02T05:16:47;52.21;42.09;67.45;;
48967;Laerm;46511;53.148;8.204;2024-03-02T05:19:19;44.73;42.22;54.06;;
48967;Laerm;46511;53.148;8.204;2024-03-02T05:21:50;52.43;42.09;66.53;;
48967;Laerm;46511;53.148;8.204;2024-03-02T05:24:22;55.57;42.59;70.32;;
48967;Laerm;46511;53.148;8.204;2024-03-02T05:26:54;57.45;43.04;67.00;;
48967;Laerm;46511;53.148;8.204;2024-03-02T05:29:25;55.22;42.09;68.74;;
48967;Laerm;46511;53.148;8.204;2024-03-02T05:31:57;52.12;43.14;70.97;;
48967;Laerm;46511;53.148;8.204;2024-03-02T05:34:28;48.04;42.82;62.96;;
48967;Laerm;46511;53.148;8.204;2024-03-02T05:37:00;50.75;42.93;61.93;;
48967;Laerm;46511;53.148;8.204;2024-03-02T05:39:32;52.56;42.93;64.06;;
48967;Laerm;46511;53.148;8.204;2024-03-02T05:42:04;54.61;42.98;66.42;;
48967;Laerm;46511;53.148;8.204;2024-03-02T05:44:38;47.23;42.79;57.17;;
48967;Laerm;46511;53.148;8.204;2024-03-02T05:47:09;51.87;42.88;66.55;;
48967;Laerm;46511;53.148;8.204;2024-03-02T05:49:41;46.28;42.09;60.60;;
48967;Laerm;46511;53.148;8.204;2024-03-02T05:52:12;48.45;42.65;59.32;;
48967;Laerm;46511;53.148;8.204;2024-03-02T05:54:44;52.92;43.14;68.85;;
48967;Laerm;46511;53.148;8.204;2024-03-02T05:57:15;53.90;42.71;66.31;;
48967;Laerm;46511;53.148;8.204;2024-03-02T05:59:48;51.03;43.14;67.66;;
48967;Laerm;46511;53.148;8.204;2024-03-02T06:02:19;50.10;43.44;63.43;;
48967;Laerm;46511;53.148;8.204;2024-03-02T06:04:50;50.75;43.19;65.87;;
48967;Laerm;46511;53.148;8.204;2024-03-02T06:07:22;55.68;42.16;68.05;;
48967;Laerm;46511;53.148;8.204;2024-03-02T06:09:53;48.64;43.63;59.41;;
48967;Laerm;46511;53.148;8.204;2024-03-02T06:12:24;49.53;43.24;64.00;;
48967;Laerm;46511;53.148;8.204;2024-03-02T06:14:56;51.78;43.58;63.71;;
48967;Laerm;46511;53.148;8.204;2024-03-02T06:17:27;52.09;43.19;63.46;;
48967;Laerm;46511;53.148;8.204;2024-03-02T06:19:58;52.17;42.93;67.71;;
48967;Laerm;46511;53.148;8.204;2024-03-02T06:22:29;53.49;43.81;66.45;;
48967;Laerm;46511;53.148;8.204;2024-03-02T06:25:01;52.17;43.86;64.62;;
48967;Laerm;46511;53.148;8.204;2024-03-02T06:27:32;56.38;44.11;66.60;;
48967;Laerm;46511;53.148;8.204;2024-03-02T06:30:04;56.43;44.07;73.91;;
48967;Laerm;46511;53.148;8.204;2024-03-02T06:32:35;51.77;44.07;64.31;;
48967;Laerm;46511;53.148;8.204;2024-03-02T06:35:07;54.89;44.07;65.45;;
48967;Laerm;46511;53.148;8.204;2024-03-02T06:37:41;58.76;46.38;67.86;;
48967;Laerm;46511;53.148;8.204;2024-03-02T06:40:12;55.98;44.73;70.81;;
48967;Laerm;46511;53.148;8.204;2024-03-02T06:42:43;53.74;43.99;67.53;;
48967;Laerm;46511;53.148;8.204;2024-03-02T06:45:15;53.79;43.90;67.57;;
48967;Laerm;46511;53.148;8.204;2024-03-02T06:47:46;54.47;43.44;68.83;;
48967;Laerm;46511;53.148;8.204;2024-03-02T06:50:17;50.43;43.39;63.96;;
48967;Laerm;46511;53.148;8.204;2024-03-02T06:52:48;54.08;43.05;70.90;;
48967;Laerm;46511;53.148;8.204;2024-03-02T06:55:20;58.69;44.07;72.19;;
48967;Laerm;46511;53.148;8.204;2024-03-02T06:57:52;49.62;43.49;60.96;;
48967;Laerm;46511;53.148;8.204;2024-03-02T07:00:23;55.26;43.19;66.58;;
48967;Laerm;46511;53.148;8.204;2024-03-02T07:02:55;55.68;43.09;69.68;;
48967;Laerm;46511;53.148;8.204;2024-03-02T07:05:22;52.44;43.34;63.94;;
48967;Laerm;46511;53.148;8.204;2024-03-02T07:07:53;54.22;43.54;64.53;;
48967;Laerm;46511;53.148;8.204;2024-03-02T07:10:24;53.25;43.63;64.58;;
48967;Laerm;46511;53.148;8.204;2024-03-02T07:12:56;54.56;43.86;66.79;;
48967;Laerm;46511;53.148;8.204;2024-03-02T07:15:30;55.61;43.77;67.38;;
48967;Laerm;46511;53.148;8.204;2024-03-02T07:18:19;53.05;43.86;65.14;;
48967;Laerm;46511;53.148;8.204;2024-03-02T07:20:50;54.18;43.68;65.18;;
48967;Laerm;46511;53.148;8.204;2024-03-02T07:23:21;54.24;44.43;63.26;;
48967;Laerm;46511;53.148;8.204;2024-03-02T07:25:55;56.57;44.80;68.14;;
48967;Laerm;46511;53.148;8.204;2024-03-02T07:28:27;53.23;44.62;65.68;;
48967;Laerm;46511;53.148;8.204;2024-03-02T07:31:00;51.62;44.15;64.97;;
48967;Laerm;46511;53.148;8.204;2024-03-02T07:33:32;55.95;45.17;64.74;;
48967;Laerm;46511;53.148;8.204;2024-03-02T07:36:03;55.87;44.58;68.57;;
48967;Laerm;46511;53.148;8.204;2024-03-02T07:38:35;57.14;44.54;69.82;;
48967;Laerm;46511;53.148;8.204;2024-03-02T07:41:07;52.52;44.27;65.35;;
48967;Laerm;46511;53.148;8.204;2024-03-02T07:43:39;54.86;44.43;68.04;;
48967;Laerm;46511;53.148;8.204;2024-03-02T07:46:10;56.78;44.43;67.64;;
48967;Laerm;46511;53.148;8.204;2024-03-02T07:48:42;56.34;45.20;64.35;;
48967;Laerm;46511;53.148;8.204;2024-03-02T07:51:13;56.10;44.15;65.97;;
48967;Laerm;46511;53.148;8.204;2024-03-02T07:53:45;59.04;46.32;68.24;;
48967;Laerm;46511;53.148;8.204;2024-03-02T07:56:11;55.63;44.83;66.41;;
48967;Laerm;46511;53.148;8.204;2024-03-02T07:58:43;56.86;44.69;72.59;;
48967;Laerm;46511;53.148;8.204;2024-03-02T08:01:17;53.00;44.65;63.12;;
48967;Laerm;46511;53.148;8.204;2024-03-02T08:03:48;58.24;44.54;69.11;;
48967;Laerm;46511;53.148;8.204;2024-03-02T08:06:21;56.04;43.99;67.04;;
48967;Laerm;46511;53.148;8.204;2024-03-02T08:08:57;54.05;43.94;68.16;;
48967;Laerm;46511;53.148;8.204;2024-03-02T08:11:24;54.52;43.63;70.98;;
48967;Laerm;46511;53.148;8.204;2024-03-02T08:13:55;51.66;43.94;63.37;;
48967;Laerm;46511;53.148;8.204;2024-03-02T08:16:26;56.19;44.23;68.55;;
48967;Laerm;46511;53.148;8.204;2024-03-02T08:18:58;49.56;44.03;61.06;;
48967;Laerm;46511;53.148;8.204;2024-03-02T08:21:31;57.94;44.43;65.70;;
48967;Laerm;46511;53.148;8.204;2024-03-02T08:24:06;55.68;44.03;64.80;;
48967;Laerm;46511;53.148;8.204;2024-03-02T08:26:38;56.62;44.43;73.87;;
48967;Laerm;46511;53.148;8.204;2024-03-02T08:29:09;56.17;44.27;68.21;;
48967;Laerm;46511;53.148;8.204;2024-03-02T08:31:41;55.22;43.49;66.20;;
48967;Laerm;46511;53.148;8.204;2024-03-02T08:34:12;55.56;43.86;67.52;;
48967;Laerm;46511;53.148;8.204;2024-03-02T08:36:43;55.80;43.94;65.96;;
48967;Laerm;46511;53.148;8.204;2024-03-02T08:39:15;54.23;43.44;67.12;;
48967;Laerm;46511;53.148;8.204;2024-03-02T08:41:47;53.53;43.19;66.91;;
48967;Laerm;46511;53.148;8.204;2024-03-02T08:44:19;54.50;43.72;67.42;;
48967;Laerm;46511;53.148;8.204;2024-03-02T08:46:50;56.25;43.04;75.16;;
48967;Laerm;46511;53.148;8.204;2024-03-02T08:49:21;56.81;43.34;68.14;;
48967;Laerm;46511;53.148;8.204;2024-03-02T08:51:53;56.83;42.29;69.96;;
48967;Laerm;46511;53.148;8.204;2024-03-02T08:54:27;56.91;43.63;67.25;;
48967;Laerm;46511;53.148;8.204;2024-03-02T08:56:59;58.43;45.66;68.54;;
48967;Laerm;46511;53.148;8.204;2024-03-02T08:59:31;60.17;43.39;72.86;;
48967;Laerm;46511;53.148;8.204;2024-03-02T09:02:02;57.51;43.29;70.50;;
48967;Laerm;46511;53.148;8.204;2024-03-02T09:04:34;48.57;42.71;60.28;;
48967;Laerm;46511;53.148;8.204;2024-03-02T09:07:05;55.24;41.68;69.73;;
48967;Laerm;46511;53.148;8.204;2024-03-02T09:09:36;55.24;43.19;68.79;;
48967;Laerm;46511;53.148;8.204;2024-03-02T09:12:10;52.11;41.82;63.42;;
48967;Laerm;46511;53.148;8.204;2024-03-02T09:14:42;58.34;41.82;69.06;;
48967;Laerm;46511;53.148;8.204;2024-03-02T09:17:13;52.06;41.96;67.47;;
48967;Laerm;46511;53.148;8.204;2024-03-02T09:19:45;58.02;43.58;76.05;;
48967;Laerm;46511;53.148;8.204;2024-03-02T09:22:16;58.59;43.63;69.09;;
48967;Laerm;46511;53.148;8.204;2024-03-02T09:24:47;56.27;42.71;66.63;;
48967;Laerm;46511;53.148;8.204;2024-03-02T09:27:18;52.40;41.06;65.43;;
48967;Laerm;46511;53.148;8.204;2024-03-02T09:29:50;56.68;43.24;65.33;;
48967;Laerm;46511;53.148;8.204;2024-03-02T09:32:21;56.88;42.64;69.18;;
48967;Laerm;46511;53.148;8.204;2024-03-02T09:34:52;57.42;43.19;66.99;;
48967;Laerm;46511;53.148;8.204;2024-03-02T09:37:24;56.32;42.29;65.91;;
48967;Laerm;46511;53.148;8.204;2024-03-02T09:39:55;56.71;42.59;65.45;;
48967;Laerm;46511;53.148;8.204;2024-03-02T09:42:27;59.92;44.62;83.53;;
48967;Laerm;46511;53.148;8.204;2024-03-02T09:44:59;56.64;40.98;69.90;;
48967;Laerm;46511;53.148;8.204;2024-03-02T09:47:33;55.26;43.28;66.76;;
48967;Laerm;46511;53.148;8.204;2024-03-02T09:50:05;55.82;42.35;68.93;;
48967;Laerm;46511;53.148;8.204;2024-03-02T09:52:37;57.85;42.65;74.36;;
48967;Laerm;46511;53.148;8.204;2024-03-02T09:55:09;51.07;41.30;68.81;;
48967;Laerm;46511;53.148;8.204;2024-03-02T09:57:40;54.06;42.47;63.90;;
48967;Laerm;46511;53.148;8.204;2024-03-02T10:00:13;55.37;42.59;64.98;;
48967;Laerm;46511;53.148;8.204;2024-03-02T10:02:45;53.41;42.29;64.90;;
48967;Laerm;46511;53.148;8.204;2024-03-02T10:05:27;59.75;42.09;72.37;;
48967;Laerm;46511;53.148;8.204;2024-03-02T10:08:02;54.29;41.22;65.29;;
48967;Laerm;46511;53.148;8.204;2024-03-02T10:10:40;56.15;43.44;71.12;;
48967;Laerm;46511;53.148;8.204;2024-03-02T10:13:14;59.21;43.54;70.45;;
48967;Laerm;46511;53.148;8.204;2024-03-02T10:15:45;55.52;41.22;70.73;;
48967;Laerm;46511;53.148;8.204;2024-03-02T10:18:26;57.92;41.14;68.04;;
48967;Laerm;46511;53.148;8.204;2024-03-02T10:21:13;55.40;42.06;66.28;;
48967;Laerm;46511;53.148;8.204;2024-03-02T10:23:39;54.93;43.49;65.99;;
48967;Laerm;46511;53.148;8.204;2024-03-02T10:26:17;58.03;43.54;69.26;;
48967;Laerm;46511;53.148;8.204;2024-03-02T10:28:52;56.12;40.71;67.14;;
48967;Laerm;46511;53.148;8.204;2024-03-02T10:31:30;55.74;41.53;67.58;;
48967;Laerm;46511;53.148;8.204;2024-03-02T10:34:01;54.45;42.41;67.58;;
48967;Laerm;46511;53.148;8.204;2024-03-02T10:36:34;54.35;42.16;64.89;;
48967;Laerm;46511;53.148;8.204;2024-03-02T10:39:08;56.27;42.22;67.08;;
48967;Laerm;46511;53.148;8.204;2024-03-02T10:41:40;57.01;42.93;68.19;;
48967;Laerm;46511;53.148;8.204;2024-03-02T10:44:12;56.30;41.30;65.97;;
48967;Laerm;46511;53.148;8.204;2024-03-02T10:46:45;55.73;41.82;64.14;;
48967;Laerm;46511;53.148;8.204;2024-03-02T10:49:19;56.40;42.98;66.86;;
48967;Laerm;46511;53.148;8.204;2024-03-02T10:51:51;55.49;41.68;66.88;;
48967;Laerm;46511;53.148;8.204;2024-03-02T10:54:23;55.38;42.47;64.64;;
48967;Laerm;46511;53.148;8.204;2024-03-02T10:56:59;57.60;42.47;74.11;;
48967;Laerm;46511;53.148;8.204;2024-03-02T10:59:35;55.49;41.68;69.67;;
48967;Laerm;46511;53.148;8.204;2024-03-02T11:02:11;54.17;40.62;67.94;;
48967;Laerm;46511;53.148;8.204;2024-03-02T11:04:45;56.37;41.46;66.13;;
48967;Laerm;46511;53.148;8.204;2024-03-02T11:07:18;57.58;41.41;70.00;;
48967;Laerm;46511;53.148;8.204;2024-03-02T11:10:01;55.58;41.06;69.06;;
48967;Laerm;46511;53.148;8.204;2024-03-02T11:12:55;56.89;41.82;66.83;;
48967;Laerm;46511;53.148;8.204;2024-03-02T11:15:27;57.40;42.29;67.08;;
48967;Laerm;46511;53.148;8.204;2024-03-02T11:17:58;53.94;41.75;63.95;;
48967;Laerm;46511;53.148;8.204;2024-03-02T11:20:26;58.99;44.07;72.02;;
48967;Laerm;46511;53.148;8.204;2024-03-02T11:23:04;55.85;42.16;67.52;;
48967;Laerm;46511;53.148;8.204;2024-03-02T11:25:36;56.42;42.53;68.01;;
48967;Laerm;46511;53.148;8.204;2024-03-02T11:28:07;51.03;42.41;66.27;;
48967;Laerm;46511;53.148;8.204;2024-03-02T11:33:13;56.79;43.58;71.62;;
48967;Laerm;46511;53.148;8.204;2024-03-02T11:35:46;54.40;40.89;64.66;;
48967;Laerm;46511;53.148;8.204;2024-03-02T11:38:18;54.60;41.53;63.95;;
48967;Laerm;46511;53.148;8.204;2024-03-02T11:40:50;54.79;42.76;64.51;;
48967;Laerm;46511;53.148;8.204;2024-03-02T11:43:21;56.00;41.89;66.03;;
48967;Laerm;46511;53.148;8.204;2024-03-02T11:46:00;57.19;42.16;68.08;;
48967;Laerm;46511;53.148;8.204;2024-03-02T11:48:36;57.89;41.14;67.89;;
48967;Laerm;46511;53.148;8.204;2024-03-02T11:51:08;48.93;40.62;62.04;;
48967;Laerm;46511;53.148;8.204;2024-03-02T11:53:40;54.31;42.35;66.06;;
48967;Laerm;46511;53.148;8.204;2024-03-02T11:56:14;56.23;41.75;66.53;;
48967;Laerm;46511;53.148;8.204;2024-03-02T11:58:45;55.31;41.82;65.79;;
48967;Laerm;46511;53.148;8.204;2024-03-02T12:01:16;56.16;41.55;67.22;;
48967;Laerm;46511;53.148;8.204;2024-03-02T12:03:48;56.91;42.82;65.72;;
48967;Laerm;46511;53.148;8.204;2024-03-02T12:06:20;55.16;41.96;63.33;;
48967;Laerm;46511;53.148;8.204;2024-03-02T12:08:53;57.69;40.33;66.46;;
48967;Laerm;46511;53.148;8.204;2024-03-02T12:11:25;55.65;41.96;66.86;;
48967;Laerm;46511;53.148;8.204;2024-03-02T12:13:56;55.34;43.24;64.74;;
48967;Laerm;46511;53.148;8.204;2024-03-02T12:16:29;57.25;43.04;72.27;;
48967;Laerm;46511;53.148;8.204;2024-03-02T12:19:00;56.42;40.98;70.63;;
48967;Laerm;46511;53.148;8.204;2024-03-02T12:21:32;57.13;42.16;66.68;;
48967;Laerm;46511;53.148;8.204;2024-03-02T12:24:03;55.61;41.46;68.28;;
48967;Laerm;46511;53.148;8.204;2024-03-02T12:26:34;57.59;41.46;72.94;;
48967;Laerm;46511;53.148;8.204;2024-03-02T12:29:06;56.56;41.53;68.76;;
48967;Laerm;46511;53.148;8.204;2024-03-02T12:31:38;54.27;43.72;67.28;;
48967;Laerm;46511;53.148;8.204;2024-03-02T12:34:12;58.35;42.59;71.77;;
48967;Laerm;46511;53.148;8.204;2024-03-02T12:36:46;53.79;40.62;64.62;;
48967;Laerm;46511;53.148;8.204;2024-03-02T12:39:20;50.56;41.82;59.99;;
48967;Laerm;46511;53.148;8.204;2024-03-02T12:41:53;56.15;40.89;73.10;;
48967;Laerm;46511;53.148;8.204;2024-03-02T12:44:25;54.41;41.75;70.37;;
48967;Laerm;46511;53.148;8.204;2024-03-02T12:46:56;56.99;42.93;67.94;;
48967;Laerm;46511;53.148;8.204;2024-03-02T12:49:28;56.51;41.61;65.56;;
48967;Laerm;46511;53.148;8.204;2024-03-02T12:52:01;58.92;41.14;71.05;;
48967;Laerm;46511;53.148;8.204;2024-03-02T12:54:33;58.46;40.71;77.06;;
48967;Laerm;46511;53.148;8.204;2024-03-02T12:57:05;56.36;42.29;67.78;;
48967;Laerm;46511;53.148;8.204;2024-03-02T12:59:36;56.87;43.63;68.50;;
48967;Laerm;46511;53.148;8.204;2024-03-02T13:02:17;55.87;43.09;65.01;;
48967;Laerm;46511;53.148;8.204;2024-03-02T13:04:55;55.59;42.35;65.57;;
48967;Laerm;46511;53.148;8.204;2024-03-02T13:07:27;57.57;42.59;68.56;;
48967;Laerm;46511;53.148;8.204;2024-03-02T13:09:58;57.41;42.59;66.21;;
48967;Laerm;46511;53.148;8.204;2024-03-02T13:12:30;56.69;42.53;68.28;;
48967;Laerm;46511;53.148;8.204;2024-03-02T13:14:58;58.72;42.09;74.03;;
48967;Laerm;46511;53.148;8.204;2024-03-02T13:17:30;57.44;41.68;67.26;;
48967;Laerm;46511;53.148;8.204;2024-03-02T13:20:02;60.24;45.45;80.80;;
48967;Laerm;46511;53.148;8.204;2024-03-02T13:22:36;57.51;44.07;69.67;;
48967;Laerm;46511;53.148;8.204;2024-03-02T13:25:07;54.26;42.29;66.56;;
48967;Laerm;46511;53.148;8.204;2024-03-02T13:27:41;55.12;42.53;63.53;;
48967;Laerm;46511;53.148;8.204;2024-03-02T13:30:08;50.31;41.30;66.26;;
48967;Laerm;46511;53.148;8.204;2024-03-02T13:32:39;55.37;42.82;67.62;;
48967;Laerm;46511;53.148;8.204;2024-03-02T13:35:11;56.15;42.98;64.28;;
48967;Laerm;46511;53.148;8.204;2024-03-02T13:37:42;55.10;43.39;64.61;;
48967;Laerm;46511;53.148;8.204;2024-03-02T13:40:09;55.54;42.65;66.83;;
48967;Laerm;46511;53.148;8.204;2024-03-02T13:42:44;60.33;43.94;78.42;;
48967;Laerm;46511;53.148;8.204;2024-03-02T13:45:15;57.47;42.65;66.14;;
48967;Laerm;46511;53.148;8.204;2024-03-02T13:47:47;58.43;42.76;68.64;;
48967;Laerm;46511;53.148;8.204;2024-03-02T13:50:18;55.80;42.29;64.72;;
48967;Laerm;46511;53.148;8.204;2024-03-02T13:52:49;57.33;43.04;68.19;;
48967;Laerm;46511;53.148;8.204;2024-03-02T13:55:21;56.82;41.61;66.81;;
48967;Laerm;46511;53.148;8.204;2024-03-02T13:57:52;57.46;41.46;67.32;;
48967;Laerm;46511;53.148;8.204;2024-03-02T14:00:24;53.88;42.47;66.25;;
48967;Laerm;46511;53.148;8.204;2024-03-02T14:02:55;55.48;43.34;69.56;;
48967;Laerm;46511;53.148;8.204;2024-03-02T14:05:26;56.46;42.93;69.43;;
48967;Laerm;46511;53.148;8.204;2024-03-02T14:07:58;61.11;43.19;75.93;;
48967;Laerm;46511;53.148;8.204;2024-03-02T14:10:31;57.47;42.71;71.83;;
48967;Laerm;46511;53.148;8.204;2024-03-02T14:13:02;56.22;42.19;67.41;;